createdAt,value
2016-05-22T00:00:26.844Z,0
2016-05-22T00:01:26.799Z,0
2016-05-22T00:02:26.927Z,0
2016-05-22T00:03:26.899Z,0
2016-05-22T00:04:26.854Z,0
2016-05-22T00:05:26.826Z,0
2016-05-22T00:06:26.813Z,0
2016-05-22T00:07:26.612Z,0
2016-05-22T00:08:26.585Z,0
2016-05-22T00:09:26.540Z,0
2016-05-22T00:10:26.526Z,0
2016-05-22T00:11:26.812Z,0
2016-05-22T00:12:27.361Z,0
2016-05-22T00:13:26.581Z,0
2016-05-22T00:14:26.820Z,0
2016-05-22T00:15:26.197Z,0
2016-05-22T00:16:26.497Z,0
2016-05-22T00:17:26.420Z,0
2016-05-22T00:18:26.252Z,0
2016-05-22T00:19:26.395Z,0
2016-05-22T00:20:26.335Z,0
2016-05-22T00:21:26.291Z,0
2016-05-22T00:22:26.263Z,0
2016-05-22T00:23:26.233Z,0
2016-05-22T00:24:26.206Z,0
2016-05-22T00:25:26.208Z,0
2016-05-22T00:26:26.148Z,0
2016-05-22T00:27:26.448Z,0
2016-05-22T00:28:26.060Z,0
2016-05-22T00:29:26.047Z,0
2016-05-22T00:30:26.034Z,0
2016-05-22T00:31:25.974Z,0
2016-05-22T00:32:25.946Z,0
2016-05-22T00:33:25.917Z,0
2016-05-22T00:34:25.716Z,0
2016-05-22T00:35:25.829Z,0
2016-05-22T00:36:25.801Z,0
2016-05-22T00:37:25.787Z,0
2016-05-22T00:38:25.759Z,0
2016-05-22T00:39:25.559Z,0
2016-05-22T00:40:25.670Z,0
2016-05-22T00:41:25.657Z,0
2016-05-22T00:42:25.488Z,0
2016-05-22T00:43:25.834Z,0
2016-05-22T00:44:25.541Z,0
2016-05-22T00:45:25.371Z,0
2016-05-22T00:46:25.514Z,0
2016-05-22T00:47:25.924Z,0
2016-05-22T00:48:25.411Z,0
2016-05-22T00:49:25.397Z,0
2016-05-22T00:50:25.353Z,0
2016-05-22T00:51:25.341Z,0
2016-05-22T00:52:25.281Z,0
2016-05-22T00:53:25.096Z,0
2016-05-22T00:54:25.224Z,0
2016-05-22T00:55:25.039Z,0
2016-05-22T00:56:25.166Z,0
2016-05-22T00:57:25.232Z,0
2016-05-22T00:58:25.094Z,0
2016-05-22T00:59:25.050Z,0
2016-05-22T01:00:25.021Z,0
2016-05-22T01:01:24.993Z,0
2016-05-22T01:02:24.963Z,0
2016-05-22T01:03:24.919Z,0
2016-05-22T01:04:24.719Z,0
2016-05-22T01:05:24.862Z,0
2016-05-22T01:06:24.834Z,0
2016-05-22T01:07:24.634Z,0
2016-05-22T01:08:24.746Z,0
2016-05-22T01:09:24.576Z,0
2016-05-22T01:10:24.704Z,0
2016-05-22T01:11:24.504Z,0
2016-05-22T01:12:24.350Z,0
2016-05-22T01:13:24.618Z,0
2016-05-22T01:14:24.559Z,0
2016-05-22T01:15:24.373Z,0
2016-05-22T01:16:24.502Z,0
2016-05-22T01:17:24.317Z,0
2016-05-22T01:18:24.428Z,0
2016-05-22T01:19:24.384Z,0
2016-05-22T01:20:24.215Z,0
2016-05-22T01:21:24.328Z,0
2016-05-22T01:22:24.143Z,0
2016-05-22T01:23:24.255Z,0
2016-05-22T01:24:24.226Z,0
2016-05-22T01:25:24.025Z,0
2016-05-22T01:26:24.153Z,0
2016-05-22T01:27:24.375Z,0
2016-05-22T01:28:24.096Z,0
2016-05-22T01:29:24.068Z,0
2016-05-22T01:30:24.023Z,0
2016-05-22T01:31:23.823Z,0
2016-05-22T01:32:23.966Z,0
2016-05-22T01:33:23.969Z,0
2016-05-22T01:34:23.893Z,0
2016-05-22T01:35:23.880Z,0
2016-05-22T01:36:23.821Z,0
2016-05-22T01:37:23.793Z,0
2016-05-22T01:38:23.763Z,0
2016-05-22T01:39:23.782Z,0
2016-05-22T01:40:23.378Z,0
2016-05-22T01:41:23.663Z,0
2016-05-22T01:42:23.962Z,0
2016-05-22T01:43:23.590Z,0
2016-05-22T01:44:23.264Z,0
2016-05-22T01:45:23.532Z,0
2016-05-22T01:46:23.504Z,0
2016-05-22T01:47:23.288Z,0
2016-05-22T01:48:23.415Z,0
2016-05-22T01:49:23.075Z,0
2016-05-22T01:50:23.203Z,0
2016-05-22T01:51:23.330Z,0
2016-05-22T01:52:23.270Z,0
2016-05-22T01:53:23.272Z,0
2016-05-22T01:54:23.057Z,0
2016-05-22T01:55:23.013Z,0
2016-05-22T01:56:23.156Z,0
2016-05-22T01:57:23.127Z,0
2016-05-22T01:58:22.771Z,0
2016-05-22T01:59:23.055Z,0
2016-05-22T02:00:23.011Z,0
2016-05-22T02:01:22.982Z,0
2016-05-22T02:02:22.938Z,0
2016-05-22T02:03:22.909Z,0
2016-05-22T02:04:22.772Z,0
2016-05-22T02:05:22.743Z,0
2016-05-22T02:06:22.823Z,0
2016-05-22T02:07:22.780Z,0
2016-05-22T02:08:22.751Z,0
2016-05-22T02:09:22.707Z,0
2016-05-22T02:10:22.521Z,0
2016-05-22T02:11:22.649Z,0
2016-05-22T02:12:22.340Z,0
2016-05-22T02:13:22.640Z,0
2016-05-22T02:14:22.548Z,0
2016-05-22T02:15:22.363Z,0
2016-05-22T02:16:22.491Z,0
2016-05-22T02:17:22.353Z,0
2016-05-22T02:18:22.262Z,0
2016-05-22T02:19:22.437Z,0
2016-05-22T02:20:22.346Z,0
2016-05-22T02:21:22.317Z,0
2016-05-22T02:22:22.289Z,0
2016-05-22T02:23:22.244Z,0
2016-05-22T02:24:22.200Z,0
2016-05-22T02:25:22.031Z,0
2016-05-22T02:26:22.143Z,0
2016-05-22T02:27:22.958Z,0
2016-05-22T02:28:22.086Z,0
2016-05-22T02:29:22.058Z,0
2016-05-22T02:30:22.013Z,0
2016-05-22T02:31:21.828Z,0
2016-05-22T02:32:21.784Z,0
2016-05-22T02:33:21.912Z,0
2016-05-22T02:34:21.727Z,0
2016-05-22T02:35:21.542Z,0
2016-05-22T02:36:21.810Z,0
2016-05-22T02:37:21.782Z,0
2016-05-22T02:38:21.738Z,0
2016-05-22T02:39:21.710Z,0
2016-05-22T02:40:21.540Z,0
2016-05-22T02:41:21.512Z,0
2016-05-22T02:42:21.624Z,0
2016-05-22T02:43:21.423Z,0
2016-05-22T02:44:21.440Z,0
2016-05-22T02:45:21.507Z,0
2016-05-22T02:46:21.337Z,0
2016-05-22T02:47:21.434Z,0
2016-05-22T02:48:21.249Z,0
2016-05-22T02:49:21.361Z,0
2016-05-22T02:50:21.332Z,0
2016-05-22T02:51:21.148Z,0
2016-05-22T02:52:21.306Z,0
2016-05-22T02:53:21.075Z,0
2016-05-22T02:54:21.203Z,0
2016-05-22T02:55:20.877Z,0
2016-05-22T02:56:21.145Z,0
2016-05-22T02:57:21.055Z,0
2016-05-22T02:58:21.057Z,0
2016-05-22T02:59:21.044Z,0
2016-05-22T03:00:20.703Z,0
2016-05-22T03:01:21.128Z,0
2016-05-22T03:02:20.943Z,0
2016-05-22T03:03:20.898Z,0
2016-05-22T03:04:20.855Z,0
2016-05-22T03:05:20.669Z,0
2016-05-22T03:06:20.641Z,0
2016-05-22T03:07:20.769Z,0
2016-05-22T03:08:20.741Z,0
2016-05-22T03:09:20.712Z,0
2016-05-22T03:10:20.510Z,0
2016-05-22T03:11:20.638Z,0
2016-05-22T03:12:21.095Z,0
2016-05-22T03:13:20.348Z,0
2016-05-22T03:14:20.553Z,0
2016-05-22T03:15:20.493Z,0
2016-05-22T03:16:20.465Z,0
2016-05-22T03:17:20.295Z,0
2016-05-22T03:18:20.393Z,0
2016-05-22T03:19:20.379Z,0
2016-05-22T03:20:20.320Z,0
2016-05-22T03:21:20.134Z,0
2016-05-22T03:22:20.262Z,0
2016-05-22T03:23:20.078Z,0
2016-05-22T03:24:20.033Z,0
2016-05-22T03:25:20.473Z,0
2016-05-22T03:26:20.133Z,0
2016-05-22T03:27:20.369Z,0
2016-05-22T03:28:20.059Z,0
2016-05-22T03:29:20.047Z,0
2016-05-22T03:30:20.035Z,5
2016-05-22T03:31:19.897Z,5
2016-05-22T03:32:19.886Z,5
2016-05-22T03:33:19.888Z,5
2016-05-22T03:34:20.021Z,5
2016-05-22T03:35:20.019Z,5
2016-05-22T03:36:19.970Z,5
2016-05-22T03:37:19.953Z,5
2016-05-22T03:38:19.906Z,10
2016-05-22T03:39:19.888Z,10
2016-05-22T03:40:19.727Z,10
2016-05-22T03:41:19.843Z,10
2016-05-22T03:42:19.678Z,10
2016-05-22T03:43:20.239Z,10
2016-05-22T03:44:19.786Z,15
2016-05-22T03:45:19.712Z,15
2016-05-22T03:46:19.686Z,15
2016-05-22T03:47:19.659Z,15
2016-05-22T03:48:19.632Z,20
2016-05-22T03:49:19.637Z,20
2016-05-22T03:50:19.561Z,20
2016-05-22T03:51:19.533Z,25
2016-05-22T03:52:19.177Z,25
2016-05-22T03:53:19.461Z,25
2016-05-22T03:54:19.417Z,30
2016-05-22T03:55:19.389Z,30
2016-05-22T03:56:19.361Z,30
2016-05-22T03:57:19.222Z,35
2016-05-22T03:58:19.303Z,35
2016-05-22T03:59:19.258Z,35
2016-05-22T04:00:19.230Z,40
2016-05-22T04:01:19.186Z,40
2016-05-22T04:02:19.158Z,45
2016-05-22T04:03:19.129Z,45
2016-05-22T04:04:19.085Z,45
2016-05-22T04:05:19.040Z,45
2016-05-22T04:06:19.027Z,55
2016-05-22T04:07:18.985Z,60
2016-05-22T04:08:18.955Z,70
2016-05-22T04:09:18.926Z,80
2016-05-22T04:10:18.898Z,90
2016-05-22T04:11:18.870Z,95
2016-05-22T04:12:18.685Z,95
2016-05-22T04:13:18.782Z,95
2016-05-22T04:14:18.753Z,90
2016-05-22T04:15:18.567Z,95
2016-05-22T04:16:18.570Z,85
2016-05-22T04:17:18.651Z,85
2016-05-22T04:18:18.623Z,90
2016-05-22T04:19:18.579Z,90
2016-05-22T04:20:18.551Z,90
2016-05-22T04:21:18.521Z,95
2016-05-22T04:22:18.493Z,100
2016-05-22T04:23:18.292Z,105
2016-05-22T04:24:18.436Z,105
2016-05-22T04:25:18.376Z,95
2016-05-22T04:26:18.192Z,95
2016-05-22T04:27:18.147Z,100
2016-05-22T04:28:18.291Z,105
2016-05-22T04:29:18.247Z,120
2016-05-22T04:30:18.217Z,130
2016-05-22T04:31:18.174Z,145
2016-05-22T04:32:18.144Z,145
2016-05-22T04:33:18.132Z,155
2016-05-22T04:34:18.088Z,190
2016-05-22T04:35:18.043Z,260
2016-05-22T04:36:18.015Z,305
2016-05-22T04:37:17.986Z,325
2016-05-22T04:38:17.958Z,345
2016-05-22T04:39:17.773Z,360
2016-05-22T04:40:17.885Z,370
2016-05-22T04:41:17.715Z,385
2016-05-22T04:42:17.843Z,380
2016-05-22T04:43:17.846Z,385
2016-05-22T04:44:17.771Z,390
2016-05-22T04:45:17.726Z,405
2016-05-22T04:46:17.698Z,440
2016-05-22T04:47:17.654Z,475
2016-05-22T04:48:17.672Z,485
2016-05-22T04:49:17.440Z,500
2016-05-22T04:50:17.428Z,515
2016-05-22T04:51:17.540Z,520
2016-05-22T04:52:17.511Z,530
2016-05-22T04:53:17.358Z,535
2016-05-22T04:54:17.453Z,550
2016-05-22T04:55:17.409Z,565
2016-05-22T04:56:17.412Z,565
2016-05-22T04:57:17.633Z,575
2016-05-22T04:58:17.933Z,585
2016-05-22T04:59:17.327Z,585
2016-05-22T05:00:17.314Z,610
2016-05-22T05:01:17.238Z,605
2016-05-22T05:02:17.241Z,605
2016-05-22T05:03:17.055Z,605
2016-05-22T05:04:17.183Z,605
2016-05-22T05:05:16.999Z,615
2016-05-22T05:06:17.174Z,625
2016-05-22T05:07:17.098Z,635
2016-05-22T05:08:17.069Z,640
2016-05-22T05:09:16.916Z,645
2016-05-22T05:10:17.043Z,655
2016-05-22T05:11:16.844Z,665
2016-05-22T05:12:16.659Z,665
2016-05-22T05:13:17.817Z,665
2016-05-22T05:14:17.710Z,665
2016-05-22T05:15:17.745Z,665
2016-05-22T05:16:17.669Z,670
2016-05-22T05:17:17.641Z,660
2016-05-22T05:18:17.628Z,665
2016-05-22T05:19:17.442Z,660
2016-05-22T05:20:17.570Z,660
2016-05-22T05:21:17.386Z,655
2016-05-22T05:22:17.357Z,665
2016-05-22T05:23:17.329Z,670
2016-05-22T05:24:17.488Z,665
2016-05-22T05:25:17.474Z,670
2016-05-22T05:26:17.446Z,670
2016-05-22T05:27:17.231Z,675
2016-05-22T05:28:16.780Z,670
2016-05-22T05:29:17.361Z,630
2016-05-22T05:30:17.161Z,645
2016-05-22T05:31:17.319Z,665
2016-05-22T05:32:16.649Z,745
2016-05-22T05:33:16.966Z,820
2016-05-22T05:34:17.249Z,915
2016-05-22T05:35:17.236Z,970
2016-05-22T05:36:17.224Z,1000
2016-05-22T05:37:17.039Z,1035
2016-05-22T05:38:17.182Z,910
2016-05-22T05:39:17.138Z,950
2016-05-22T05:40:17.124Z,895
2016-05-22T05:41:16.315Z,705
2016-05-22T05:42:17.083Z,810
2016-05-22T05:43:16.133Z,900
2016-05-22T05:44:17.041Z,955
2016-05-22T05:45:16.903Z,1000
2016-05-22T05:46:16.843Z,1065
2016-05-22T05:47:16.987Z,1075
2016-05-22T05:48:16.989Z,1085
2016-05-22T05:49:16.462Z,1090
2016-05-22T05:50:16.917Z,1120
2016-05-22T05:51:16.732Z,1140
2016-05-22T05:52:16.875Z,1110
2016-05-22T05:53:16.707Z,1135
2016-05-22T05:54:16.193Z,1110
2016-05-22T05:55:16.821Z,955
2016-05-22T05:56:16.792Z,1085
2016-05-22T05:57:16.623Z,1110
2016-05-22T05:58:16.611Z,1105
2016-05-22T05:59:16.738Z,1090
2016-05-22T06:00:16.741Z,1090
2016-05-22T06:01:16.072Z,1120
2016-05-22T06:02:15.902Z,1130
2016-05-22T06:03:16.514Z,1140
2016-05-22T06:04:16.485Z,1145
2016-05-22T06:05:16.614Z,1195
2016-05-22T06:06:16.444Z,1190
2016-05-22T06:07:16.619Z,1190
2016-05-22T06:08:16.606Z,960
2016-05-22T06:09:16.546Z,1150
2016-05-22T06:10:16.361Z,1235
2016-05-22T06:11:16.349Z,1165
2016-05-22T06:12:15.882Z,1070
2016-05-22T06:13:16.338Z,1055
2016-05-22T06:14:16.326Z,1060
2016-05-22T06:15:16.438Z,1235
2016-05-22T06:16:16.440Z,1285
2016-05-22T06:17:16.209Z,1260
2016-05-22T06:18:15.758Z,1125
2016-05-22T06:19:16.371Z,1180
2016-05-22T06:20:16.185Z,1225
2016-05-22T06:21:16.172Z,1200
2016-05-22T06:22:16.143Z,1290
2016-05-22T06:23:16.146Z,1260
2016-05-22T06:24:16.290Z,1375
2016-05-22T06:25:16.262Z,1395
2016-05-22T06:26:16.248Z,1410
2016-05-22T06:27:16.266Z,1430
2016-05-22T06:28:16.348Z,1465
2016-05-22T06:29:16.053Z,1460
2016-05-22T06:30:16.181Z,1475
2016-05-22T06:31:16.168Z,1495
2016-05-22T06:32:15.984Z,1525
2016-05-22T06:33:16.141Z,1540
2016-05-22T06:34:15.519Z,1600
2016-05-22T06:35:16.100Z,1605
2016-05-22T06:36:16.088Z,1645
2016-05-22T06:37:16.059Z,1625
2016-05-22T06:38:16.046Z,1585
2016-05-22T06:39:16.032Z,1620
2016-05-22T06:40:15.379Z,1660
2016-05-22T06:41:15.851Z,1720
2016-05-22T06:42:15.994Z,1750
2016-05-22T06:43:16.388Z,1765
2016-05-22T06:44:15.969Z,1740
2016-05-22T06:45:15.299Z,1785
2016-05-22T06:46:15.926Z,1795
2016-05-22T06:47:15.118Z,1810
2016-05-22T06:48:15.901Z,1800
2016-05-22T06:49:15.873Z,1830
2016-05-22T06:50:15.876Z,1815
2016-05-22T06:51:15.675Z,1855
2016-05-22T06:52:15.192Z,1875
2016-05-22T06:53:15.195Z,1875
2016-05-22T06:54:15.792Z,1850
2016-05-22T06:55:15.451Z,1875
2016-05-22T06:56:15.767Z,1890
2016-05-22T06:57:15.769Z,1905
2016-05-22T06:58:15.772Z,1920
2016-05-22T06:59:15.087Z,1910
2016-05-22T07:00:15.089Z,1930
2016-05-22T07:01:15.687Z,1970
2016-05-22T07:02:15.517Z,1945
2016-05-22T07:03:14.894Z,1990
2016-05-22T07:04:15.663Z,2000
2016-05-22T07:05:15.009Z,1955
2016-05-22T07:06:15.605Z,1990
2016-05-22T07:07:15.436Z,1990
2016-05-22T07:08:15.596Z,1975
2016-05-22T07:09:15.677Z,1980
2016-05-22T07:10:15.585Z,2015
2016-05-22T07:11:15.416Z,1990
2016-05-22T07:12:15.372Z,2015
2016-05-22T07:13:15.546Z,2085
2016-05-22T07:14:15.518Z,2075
2016-05-22T07:15:15.193Z,2110
2016-05-22T07:16:15.492Z,2075
2016-05-22T07:17:14.745Z,2120
2016-05-22T07:18:15.482Z,2125
2016-05-22T07:19:15.454Z,2140
2016-05-22T07:20:15.440Z,2140
2016-05-22T07:21:15.412Z,2085
2016-05-22T07:22:15.415Z,2165
2016-05-22T07:23:15.402Z,2175
2016-05-22T07:24:14.795Z,2165
2016-05-22T07:25:15.235Z,2185
2016-05-22T07:26:15.363Z,2185
2016-05-22T07:27:15.334Z,2205
2016-05-22T07:28:15.212Z,2245
2016-05-22T07:29:15.011Z,2290
2016-05-22T07:30:15.326Z,2155
2016-05-22T07:31:14.517Z,2190
2016-05-22T07:32:15.145Z,2185
2016-05-22T07:33:15.272Z,2160
2016-05-22T07:34:15.118Z,2195
2016-05-22T07:35:15.277Z,2245
2016-05-22T07:36:15.250Z,2255
2016-05-22T07:37:15.283Z,2180
2016-05-22T07:38:15.223Z,1955
2016-05-22T07:39:15.210Z,1630
2016-05-22T07:40:15.322Z,1800
2016-05-22T07:41:14.574Z,2055
2016-05-22T07:42:15.171Z,2070
2016-05-22T07:43:15.393Z,2115
2016-05-22T07:44:16.286Z,2175
2016-05-22T07:45:15.179Z,2205
2016-05-22T07:46:14.838Z,2240
2016-05-22T07:47:14.340Z,2225
2016-05-22T07:48:15.109Z,2185
2016-05-22T07:49:14.972Z,2250
2016-05-22T07:50:14.943Z,2235
2016-05-22T07:51:15.086Z,2240
2016-05-22T07:52:15.073Z,2260
2016-05-22T07:53:15.092Z,2270
2016-05-22T07:54:14.422Z,2275
2016-05-22T07:55:15.051Z,2205
2016-05-22T07:56:14.881Z,2170
2016-05-22T07:57:14.398Z,1910
2016-05-22T07:58:14.902Z,1485
2016-05-22T07:59:15.029Z,1140
2016-05-22T08:00:14.844Z,1050
2016-05-22T08:01:15.004Z,1040
2016-05-22T08:02:14.835Z,1025
2016-05-22T08:03:14.978Z,1020
2016-05-22T08:04:13.886Z,1015
2016-05-22T08:05:14.812Z,1015
2016-05-22T08:06:14.814Z,1020
2016-05-22T08:07:15.597Z,1010
2016-05-22T08:08:14.303Z,1015
2016-05-22T08:09:14.619Z,1020
2016-05-22T08:10:14.138Z,1030
2016-05-22T08:11:14.797Z,1060
2016-05-22T08:12:14.908Z,1240
2016-05-22T08:13:15.161Z,1785
2016-05-22T08:14:14.898Z,2350
2016-05-22T08:15:14.760Z,2535
2016-05-22T08:16:15.043Z,2560
2016-05-22T08:17:14.562Z,2465
2016-05-22T08:18:14.893Z,2435
2016-05-22T08:19:14.896Z,2475
2016-05-22T08:20:14.695Z,2530
2016-05-22T08:21:14.745Z,2690
2016-05-22T08:22:14.857Z,2660
2016-05-22T08:23:14.829Z,2525
2016-05-22T08:24:14.831Z,2490
2016-05-22T08:25:14.818Z,2495
2016-05-22T08:26:14.806Z,2505
2016-05-22T08:27:14.167Z,2550
2016-05-22T08:28:14.811Z,2585
2016-05-22T08:29:14.798Z,2595
2016-05-22T08:30:14.629Z,2645
2016-05-22T08:31:14.803Z,2565
2016-05-22T08:32:14.790Z,2650
2016-05-22T08:33:14.777Z,2670
2016-05-22T08:34:13.984Z,2640
2016-05-22T08:35:14.767Z,2575
2016-05-22T08:36:14.598Z,2575
2016-05-22T08:37:14.616Z,2615
2016-05-22T08:38:14.728Z,2710
2016-05-22T08:39:14.105Z,2750
2016-05-22T08:40:14.734Z,2770
2016-05-22T08:41:14.721Z,2790
2016-05-22T08:42:14.708Z,2790
2016-05-22T08:43:13.944Z,2720
2016-05-22T08:44:14.713Z,2705
2016-05-22T08:45:14.716Z,2740
2016-05-22T08:46:14.547Z,2850
2016-05-22T08:47:14.690Z,2815
2016-05-22T08:48:14.068Z,2800
2016-05-22T08:49:14.679Z,2680
2016-05-22T08:50:14.526Z,2685
2016-05-22T08:51:14.513Z,2735
2016-05-22T08:52:14.671Z,2880
2016-05-22T08:53:14.659Z,3090
2016-05-22T08:54:14.662Z,3255
2016-05-22T08:55:14.040Z,3170
2016-05-22T08:56:14.511Z,3290
2016-05-22T08:57:14.670Z,3405
2016-05-22T08:58:14.048Z,3430
2016-05-22T08:59:14.675Z,3275
2016-05-22T09:00:14.506Z,3210
2016-05-22T09:01:14.633Z,3220
2016-05-22T09:02:14.620Z,3110
2016-05-22T09:03:14.623Z,3125
2016-05-22T09:04:14.626Z,3225
2016-05-22T09:05:14.644Z,3135
2016-05-22T09:06:14.319Z,3050
2016-05-22T09:07:14.462Z,3060
2016-05-22T09:08:14.622Z,3160
2016-05-22T09:09:13.967Z,3225
2016-05-22T09:10:14.595Z,3190
2016-05-22T09:11:14.302Z,3165
2016-05-22T09:12:13.960Z,3315
2016-05-22T09:13:14.994Z,3330
2016-05-22T09:14:14.278Z,3365
2016-05-22T09:15:14.313Z,3320
2016-05-22T09:16:14.002Z,3175
2016-05-22T09:17:14.629Z,3120
2016-05-22T09:18:14.601Z,3165
2016-05-22T09:19:14.573Z,3105
2016-05-22T09:20:14.435Z,3010
2016-05-22T09:21:14.671Z,3040
2016-05-22T09:22:14.581Z,3020
2016-05-22T09:23:14.271Z,3070
2016-05-22T09:24:13.946Z,3165
2016-05-22T09:25:14.573Z,3035
2016-05-22T09:26:13.920Z,3035
2016-05-22T09:27:14.548Z,3265
2016-05-22T09:28:14.550Z,3315
2016-05-22T09:29:14.553Z,3270
2016-05-22T09:30:14.399Z,3390
2016-05-22T09:31:13.809Z,3250
2016-05-22T09:32:14.374Z,3320
2016-05-22T09:33:14.548Z,3575
2016-05-22T09:34:14.394Z,3535
2016-05-22T09:35:14.537Z,3495
2016-05-22T09:36:14.540Z,3500
2016-05-22T09:37:14.527Z,3590
2016-05-22T09:38:14.530Z,3630
2016-05-22T09:39:14.548Z,3545
2016-05-22T09:40:14.380Z,3480
2016-05-22T09:41:14.538Z,3565
2016-05-22T09:42:14.385Z,3500
2016-05-22T09:43:14.372Z,3665
2016-05-22T09:44:14.530Z,3470
2016-05-22T09:45:14.533Z,3235
2016-05-22T09:46:14.505Z,3290
2016-05-22T09:47:14.508Z,3470
2016-05-22T09:48:14.354Z,3530
2016-05-22T09:49:14.513Z,3550
2016-05-22T09:50:14.516Z,3580
2016-05-22T09:51:14.362Z,3615
2016-05-22T09:52:13.880Z,3685
2016-05-22T09:53:14.196Z,3650
2016-05-22T09:54:14.527Z,3505
2016-05-22T09:55:14.498Z,3375
2016-05-22T09:56:14.501Z,3405
2016-05-22T09:57:14.503Z,3550
2016-05-22T09:58:14.771Z,3450
2016-05-22T09:59:13.868Z,3490
2016-05-22T10:00:14.323Z,3545
2016-05-22T10:01:14.498Z,3455
2016-05-22T10:02:14.845Z,3400
2016-05-22T10:03:14.487Z,3270
2016-05-22T10:04:14.459Z,3225
2016-05-22T10:05:14.478Z,3185
2016-05-22T10:06:14.465Z,2945
2016-05-22T10:07:13.828Z,2925
2016-05-22T10:08:14.455Z,3250
2016-05-22T10:09:14.442Z,3355
2016-05-22T10:10:14.303Z,3370
2016-05-22T10:11:14.447Z,3365
2016-05-22T10:12:14.434Z,3205
2016-05-22T10:13:14.468Z,2930
2016-05-22T10:14:14.408Z,1825
2016-05-22T10:15:14.255Z,890
2016-05-22T10:16:14.413Z,870
2016-05-22T10:17:14.261Z,880
2016-05-22T10:18:14.356Z,1020
2016-05-22T10:19:13.610Z,1295
2016-05-22T10:20:14.252Z,1445
2016-05-22T10:21:14.380Z,1285
2016-05-22T10:22:13.727Z,1010
2016-05-22T10:23:14.354Z,880
2016-05-22T10:24:14.357Z,895
2016-05-22T10:25:14.360Z,1050
2016-05-22T10:26:13.721Z,1205
2016-05-22T10:27:14.334Z,1235
2016-05-22T10:28:15.055Z,1265
2016-05-22T10:29:14.339Z,1275
2016-05-22T10:30:17.092Z,1275
2016-05-22T10:31:14.297Z,1480
2016-05-22T10:32:15.379Z,2825
2016-05-22T10:33:14.304Z,3795
2016-05-22T10:34:14.134Z,3895
2016-05-22T10:35:13.684Z,3975
2016-05-22T10:36:14.265Z,4120
2016-05-22T10:37:14.267Z,4345
2016-05-22T10:38:14.098Z,4425
2016-05-22T10:39:14.178Z,4385
2016-05-22T10:40:14.244Z,4445
2016-05-22T10:41:14.544Z,4445
2016-05-22T10:42:22.422Z,4325
2016-05-22T10:43:14.236Z,4380
2016-05-22T10:44:14.208Z,4500
2016-05-22T10:45:14.085Z,4225
2016-05-22T10:46:14.464Z,3980
2016-05-22T10:47:14.199Z,3820
2016-05-22T10:48:14.218Z,3595
2016-05-22T10:49:14.190Z,3035
2016-05-22T10:50:14.052Z,2925
2016-05-22T10:51:13.883Z,2645
2016-05-22T10:52:14.026Z,2975
2016-05-22T10:53:14.169Z,3035
2016-05-22T10:54:14.000Z,2925
2016-05-22T10:55:14.175Z,2905
2016-05-22T10:56:14.147Z,3030
2016-05-22T10:57:14.148Z,2220
2016-05-22T10:58:13.370Z,795
2016-05-22T10:59:13.951Z,475
2016-05-22T11:00:14.173Z,450
2016-05-22T11:01:13.488Z,435
2016-05-22T11:02:13.490Z,425
2016-05-22T11:03:14.087Z,405
2016-05-22T11:04:13.434Z,405
2016-05-22T11:05:13.468Z,400
2016-05-22T11:06:14.048Z,395
2016-05-22T11:07:14.034Z,380
2016-05-22T11:08:14.053Z,360
2016-05-22T11:09:14.025Z,335
2016-05-22T11:10:14.042Z,325
2016-05-22T11:11:14.000Z,320
2016-05-22T11:12:13.986Z,325
2016-05-22T11:13:13.833Z,310
2016-05-22T11:14:13.944Z,310
2016-05-22T11:15:13.963Z,305
2016-05-22T11:16:13.919Z,305
2016-05-22T11:17:13.641Z,300
2016-05-22T11:18:13.736Z,300
2016-05-22T11:19:13.880Z,300
2016-05-22T11:20:13.882Z,285
2016-05-22T11:21:13.869Z,280
2016-05-22T11:22:13.529Z,275
2016-05-22T11:23:13.657Z,280
2016-05-22T11:24:13.175Z,275
2016-05-22T11:25:13.849Z,275
2016-05-22T11:26:13.758Z,285
2016-05-22T11:27:13.746Z,295
2016-05-22T11:28:13.685Z,290
2016-05-22T11:29:13.704Z,295
2016-05-22T11:30:13.706Z,295
2016-05-22T11:31:13.053Z,295
2016-05-22T11:32:13.540Z,295
2016-05-22T11:33:13.012Z,290
2016-05-22T11:34:12.999Z,295
2016-05-22T11:35:13.470Z,295
2016-05-22T11:36:13.598Z,290
2016-05-22T11:37:13.585Z,290
2016-05-22T11:38:12.915Z,290
2016-05-22T11:39:13.528Z,290
2016-05-22T11:40:13.186Z,290
2016-05-22T11:41:13.470Z,285
2016-05-22T11:42:27.598Z,290
2016-05-22T11:43:13.445Z,285
2016-05-22T11:44:13.259Z,290
2016-05-22T11:45:13.262Z,285
2016-05-22T11:46:13.234Z,285
2016-05-22T11:47:13.300Z,280
2016-05-22T11:48:13.364Z,280
2016-05-22T11:49:13.319Z,285
2016-05-22T11:50:13.308Z,285
2016-05-22T11:51:12.497Z,280
2016-05-22T11:52:12.469Z,280
2016-05-22T11:53:13.081Z,285
2016-05-22T11:54:12.896Z,300
2016-05-22T11:55:13.196Z,315
2016-05-22T11:56:13.183Z,320
2016-05-22T11:57:13.154Z,320
2016-05-22T11:58:12.438Z,330
2016-05-22T11:59:13.096Z,330
2016-05-22T12:00:13.068Z,340
2016-05-22T12:01:13.134Z,350
2016-05-22T12:02:13.043Z,355
2016-05-22T12:03:12.405Z,360
2016-05-22T12:04:13.001Z,370
2016-05-22T12:05:13.020Z,370
2016-05-22T12:06:12.943Z,370
2016-05-22T12:07:12.275Z,380
2016-05-22T12:08:12.121Z,380
2016-05-22T12:09:12.264Z,385
2016-05-22T12:10:12.861Z,385
2016-05-22T12:11:12.676Z,385
2016-05-22T12:12:12.820Z,395
2016-05-22T12:13:12.963Z,390
2016-05-22T12:14:12.777Z,395
2016-05-22T12:15:12.828Z,395
2016-05-22T12:16:12.752Z,395
2016-05-22T12:17:12.583Z,400
2016-05-22T12:18:12.711Z,400
2016-05-22T12:19:12.682Z,405
2016-05-22T12:20:12.638Z,410
2016-05-22T12:21:12.624Z,410
2016-05-22T12:22:12.440Z,420
2016-05-22T12:23:12.286Z,425
2016-05-22T12:24:12.727Z,430
2016-05-22T12:25:12.558Z,440
2016-05-22T12:26:12.530Z,440
2016-05-22T12:27:11.704Z,445
2016-05-22T12:28:12.174Z,445
2016-05-22T12:29:12.443Z,450
2016-05-22T12:30:12.477Z,455
2016-05-22T12:31:12.260Z,455
2016-05-22T12:32:12.373Z,460
2016-05-22T12:33:12.220Z,460
2016-05-22T12:34:12.190Z,455
2016-05-22T12:35:12.756Z,455
2016-05-22T12:36:12.334Z,450
2016-05-22T12:37:11.702Z,445
2016-05-22T12:38:12.334Z,440
2016-05-22T12:39:12.310Z,440
2016-05-22T12:40:12.316Z,440
2016-05-22T12:41:12.142Z,435
2016-05-22T12:42:12.277Z,435
2016-05-22T12:43:12.772Z,435
2016-05-22T12:44:12.109Z,435
2016-05-22T12:45:12.260Z,435
2016-05-22T12:46:12.250Z,440
2016-05-22T12:47:11.600Z,440
2016-05-22T12:48:12.198Z,445
2016-05-22T12:49:12.017Z,440
2016-05-22T12:50:11.521Z,440
2016-05-22T12:51:12.135Z,445
2016-05-22T12:52:11.982Z,460
2016-05-22T12:53:12.127Z,460
2016-05-22T12:54:10.973Z,465
2016-05-22T12:55:12.071Z,465
2016-05-22T12:56:12.043Z,475
2016-05-22T12:57:11.280Z,480
2016-05-22T12:58:12.049Z,490
2016-05-22T12:59:12.099Z,485
2016-05-22T13:00:11.322Z,485
2016-05-22T13:01:11.339Z,470
2016-05-22T13:02:11.280Z,465
2016-05-22T13:03:11.736Z,460
2016-05-22T13:04:11.271Z,465
2016-05-22T13:05:11.882Z,455
2016-05-22T13:06:11.527Z,445
2016-05-22T13:07:11.842Z,445
2016-05-22T13:08:11.641Z,445
2016-05-22T13:09:11.613Z,445
2016-05-22T13:10:11.756Z,445
2016-05-22T13:11:13.805Z,445
2016-05-22T13:12:11.698Z,435
2016-05-22T13:13:11.592Z,430
2016-05-22T13:14:11.673Z,430
2016-05-22T13:15:11.660Z,425
2016-05-22T13:16:11.631Z,420
2016-05-22T13:17:11.619Z,420
2016-05-22T13:18:11.418Z,420
2016-05-22T13:19:11.561Z,415
2016-05-22T13:20:11.533Z,410
2016-05-22T13:21:11.208Z,405
2016-05-22T13:22:11.491Z,400
2016-05-22T13:23:11.494Z,395
2016-05-22T13:24:11.481Z,395
2016-05-22T13:25:10.687Z,405
2016-05-22T13:26:11.424Z,400
2016-05-22T13:27:11.395Z,405
2016-05-22T13:28:11.524Z,410
2016-05-22T13:29:10.729Z,415
2016-05-22T13:30:11.324Z,415
2016-05-22T13:31:11.313Z,420
2016-05-22T13:32:12.221Z,420
2016-05-22T13:33:10.505Z,420
2016-05-22T13:34:11.243Z,420
2016-05-22T13:35:10.635Z,425
2016-05-22T13:36:11.201Z,415
2016-05-22T13:37:11.031Z,415
2016-05-22T13:38:10.551Z,415
2016-05-22T13:39:10.365Z,415
2016-05-22T13:40:11.181Z,415
2016-05-22T13:41:11.120Z,415
2016-05-22T13:42:11.107Z,415
2016-05-22T13:43:10.923Z,415
2016-05-22T13:44:10.425Z,410
2016-05-22T13:45:10.882Z,410
2016-05-22T13:46:11.025Z,405
2016-05-22T13:47:10.106Z,400
2016-05-22T13:48:10.342Z,395
2016-05-22T13:49:10.939Z,395
2016-05-22T13:50:10.801Z,390
2016-05-22T13:51:10.788Z,390
2016-05-22T13:52:10.884Z,395